Time;durP1;ratioP1;P1;durP2;ratioP2;P2;SDS_P1;SDS_P2;PMS_P1;PMS_P2;Temp;Humidity;BMP_temperature;BMP_pressure;BME280_temperature;BME280_humidity;BME280_pressure;Samples;Min_cycle;Max_cycle;Signal;HPM_P1;HPM_P2
2021/08/10 00:01:02;;;;;;;10.23;8.33;;;;;;;15.92;80.73;101582.78;4971109;28;20267;-72
2021/08/10 00:03:30;;;;;;;12.77;7.80;;;;;;;15.85;80.87;101593.69;4967172;28;20267;-72
2021/08/10 00:05:56;;;;;;;11.57;8.53;;;;;;;15.89;80.60;101591.34;4969083;28;20232;-72
2021/08/10 00:08:23;;;;;;;9.87;7.83;;;;;;;15.98;80.05;101583.69;4969852;28;20723;-72
2021/08/10 00:10:50;;;;;;;9.37;7.47;;;;;;;15.93;80.50;101587.13;4967006;28;20272;-72
2021/08/10 00:13:20;;;;;;;11.30;7.10;;;;;;;15.92;80.13;101582.78;4969905;28;20962;-71
2021/08/10 00:15:47;;;;;;;10.17;7.67;;;;;;;15.98;79.97;101591.78;4969486;28;20210;-72
2021/08/10 00:18:13;;;;;;;7.10;6.40;;;;;;;15.97;79.80;101580.19;4969139;28;20220;-72
2021/08/10 00:20:41;;;;;;;11.30;7.40;;;;;;;15.96;79.22;101580.41;4969045;28;20222;-72
2021/08/10 00:23:07;;;;;;;8.47;6.63;;;;;;;16.04;79.10;101582.75;4968174;28;20214;-72
2021/08/10 00:25:34;;;;;;;7.60;6.90;;;;;;;16.17;78.20;101583.28;4969168;28;20226;-72
2021/08/10 00:28:01;;;;;;;9.97;7.20;;;;;;;16.13;78.12;101584.81;4969723;28;20221;-72
2021/08/10 00:30:27;;;;;;;6.90;6.13;;;;;;;16.21;78.06;101570.09;4970398;28;20213;-72
2021/08/10 00:32:54;;;;;;;7.37;6.67;;;;;;;16.13;78.10;101576.72;4969909;28;20237;-72
2021/08/10 00:35:21;;;;;;;8.80;6.07;;;;;;;16.19;77.61;101578.44;4967828;28;20233;-72
2021/08/10 00:37:48;;;;;;;10.00;6.60;;;;;;;16.13;77.76;101570.50;4969307;28;20224;-72
2021/08/10 00:40:16;;;;;;;9.67;6.20;;;;;;;15.98;78.04;101568.34;4970518;28;20768;-72
2021/08/10 00:42:42;;;;;;;7.03;5.37;;;;;;;16.10;77.54;101557.50;4969093;28;20263;-72
2021/08/10 00:45:10;;;;;;;10.27;6.83;;;;;;;16.05;77.19;101563.63;4969195;28;20671;-72
2021/08/10 00:47:36;;;;;;;10.73;5.93;;;;;;;15.92;77.54;101568.50;4966920;28;20217;-72
2021/08/10 00:50:03;;;;;;;9.50;5.43;;;;;;;15.81;77.79;101565.59;4967800;28;20229;-72
2021/08/10 00:52:30;;;;;;;9.80;5.83;;;;;;;15.92;77.28;101563.09;4969076;28;20272;-72
2021/08/10 00:54:57;;;;;;;8.00;5.10;;;;;;;16.03;76.68;101571.16;4966570;28;20217;-72
2021/08/10 00:57:24;;;;;;;8.97;5.27;;;;;;;16.00;76.58;101566.22;4970055;28;20258;-72
2021/08/10 00:59:50;;;;;;;9.50;5.23;;;;;;;16.07;75.91;101564.19;4967229;28;20221;-72
2021/08/10 01:02:16;;;;;;;10.27;5.27;;;;;;;16.03;76.10;101564.94;4969176;28;20253;-72
2021/08/10 01:04:43;;;;;;;6.77;5.00;;;;;;;16.11;75.71;101561.84;4971649;28;20232;-72
2021/08/10 01:07:14;;;;;;;7.57;4.80;;;;;;;16.11;75.90;101559.13;4968874;28;20212;-72
2021/08/10 01:09:45;;;;;;;10.33;5.27;;;;;;;16.14;75.67;101555.97;4967164;28;20277;-72
2021/08/10 01:12:17;;;;;;;6.33;4.83;;;;;;;15.85;76.67;101563.22;4970165;28;20335;-72
2021/08/10 01:14:47;;;;;;;6.93;5.27;;;;;;;15.62;77.65;101566.00;4966464;28;20642;-72
2021/08/10 01:17:20;;;;;;;9.47;5.73;;;;;;;15.71;77.55;101565.41;4971182;28;20295;-71
2021/08/10 01:20:09;;;;;;;8.20;4.80;;;;;;;15.66;77.79;101568.00;4969489;28;20263;-72
2021/08/10 01:22:37;;;;;;;7.37;5.37;;;;;;;15.64;77.99;101570.13;4969374;28;20613;-72
2021/08/10 01:25:08;;;;;;;9.10;5.17;;;;;;;15.73;77.58;101576.75;4966956;28;20269;-72
2021/08/10 01:27:47;;;;;;;8.03;5.53;;;;;;;15.64;78.24;101569.31;4968412;28;21064;-72
2021/08/10 01:30:16;;;;;;;9.20;5.47;;;;;;;15.73;77.71;101567.84;4966276;28;20264;-72
2021/08/10 01:32:46;;;;;;;10.90;5.20;;;;;;;15.69;77.90;101567.50;4969906;28;20247;-72
2021/08/10 01:35:14;;;;;;;8.07;6.00;;;;;;;15.67;78.28;101566.94;4967457;28;21192;-72
2021/08/10 01:37:41;;;;;;;7.13;5.50;;;;;;;15.80;78.00;101565.84;4967169;28;20225;-72
2021/08/10 01:40:10;;;;;;;11.03;6.00;;;;;;;15.82;78.01;101563.72;4969096;28;20224;-72
2021/08/10 01:42:38;;;;;;;8.87;5.90;;;;;;;15.83;77.83;101566.16;4970472;28;20269;-72
2021/08/10 01:45:06;;;;;;;10.47;6.27;;;;;;;15.68;78.72;101565.88;4968334;28;20269;-72
2021/08/10 01:47:33;;;;;;;8.27;6.80;;;;;;;15.69;79.07;101564.81;4968597;28;20293;-72
2021/08/10 01:50:03;;;;;;;8.97;6.33;;;;;;;15.69;79.27;101556.72;4968484;28;20696;-72
2021/08/10 01:52:30;;;;;;;11.00;7.77;;;;;;;15.87;78.82;101566.50;4968427;28;20245;-72
2021/08/10 01:54:57;;;;;;;10.97;7.57;;;;;;;16.00;78.31;101565.41;4968728;28;20764;-72
2021/08/10 01:57:23;;;;;;;11.03;7.47;;;;;;;15.72;79.86;101560.81;4967743;28;20244;-72
2021/08/10 01:59:51;;;;;;;10.37;6.97;;;;;;;15.71;80.14;101567.28;4968702;28;20213;-72
2021/08/10 02:02:18;;;;;;;9.27;7.07;;;;;;;15.75;79.79;101554.94;4969150;28;20221;-72
2021/08/10 02:04:45;;;;;;;10.53;8.00;;;;;;;15.80;79.81;101560.44;4967999;28;20284;-72
2021/08/10 02:07:13;;;;;;;11.40;7.90;;;;;;;15.78;80.21;101566.09;4967508;28;20239;-72
2021/08/10 02:09:40;;;;;;;11.13;8.40;;;;;;;15.75;80.07;101563.03;4971643;28;20752;-72
2021/08/10 02:12:08;;;;;;;9.23;8.20;;;;;;;15.82;79.95;101561.03;4971924;28;20265;-72
2021/08/10 02:14:34;;;;;;;10.87;8.30;;;;;;;15.62;80.68;101566.00;4969197;28;20886;-73
2021/08/10 02:17:02;;;;;;;11.07;8.40;;;;;;;15.73;80.15;101563.28;4969954;28;20284;-73
2021/08/10 02:19:29;;;;;;;12.00;7.80;;;;;;;15.55;80.97;101564.25;4970321;28;20246;-72
2021/08/10 02:21:59;;;;;;;9.63;8.03;;;;;;;15.68;80.36;101562.38;4973669;28;20228;-73
2021/08/10 02:24:30;;;;;;;11.40;8.27;;;;;;;15.78;80.05;101573.34;4971445;28;20267;-73
2021/08/10 02:26:59;;;;;;;11.00;8.17;;;;;;;15.98;79.08;101572.91;4971602;28;20209;-72
2021/08/10 02:29:28;;;;;;;9.60;8.10;;;;;;;16.10;78.55;101569.09;4972845;28;20216;-73
2021/08/10 02:31:55;;;;;;;9.73;7.27;;;;;;;15.88;79.16;101562.78;4972921;28;20209;-73
2021/08/10 02:34:22;;;;;;;10.77;7.60;;;;;;;15.87;79.32;101575.41;4971137;28;20228;-72
2021/08/10 02:36:49;;;;;;;11.87;7.63;;;;;;;16.00;78.80;101581.56;4970221;28;20259;-73
2021/08/10 02:39:16;;;;;;;11.73;7.93;;;;;;;15.96;78.80;101575.03;4972842;28;20214;-73
2021/08/10 02:41:44;;;;;;;11.70;8.17;;;;;;;16.05;78.44;101574.41;4972064;28;20294;-73
2021/08/10 02:44:11;;;;;;;10.53;7.37;;;;;;;16.02;78.53;101576.78;4971831;28;20216;-73
2021/08/10 02:46:37;;;;;;;10.43;7.43;;;;;;;16.08;78.54;101578.50;4973611;28;20266;-73
2021/08/10 02:49:04;;;;;;;12.43;7.80;;;;;;;16.25;78.21;101581.22;4970864;28;20233;-73
2021/08/10 02:51:30;;;;;;;9.57;6.93;;;;;;;15.96;78.76;101575.03;4973138;28;20260;-73
2021/08/10 02:53:56;;;;;;;9.70;8.00;;;;;;;16.06;78.56;101572.53;4971603;28;21105;-73
2021/08/10 02:56:23;;;;;;;11.00;7.83;;;;;;;16.10;78.32;101574.50;4969258;28;20221;-72
2021/08/10 02:58:57;;;;;;;11.13;8.50;;;;;;;15.97;78.81;101574.78;4968783;28;20213;-72
2021/08/10 03:01:28;;;;;;;8.63;7.37;;;;;;;15.94;79.19;101577.16;4972173;28;20302;-73
2021/08/10 03:03:56;;;;;;;12.53;9.30;;;;;;;15.91;79.27;101569.56;4970722;28;20217;-72
2021/08/10 03:06:22;;;;;;;10.13;8.03;;;;;;;15.93;79.26;101573.63;4971567;28;20249;-73
2021/08/10 03:08:54;;;;;;;11.90;8.33;;;;;;;15.96;79.26;101566.94;4969781;28;20569;-72
2021/08/10 03:11:21;;;;;;;11.87;9.00;;;;;;;16.01;79.32;101567.88;4971700;28;20220;-73
2021/08/10 03:13:49;;;;;;;11.50;8.60;;;;;;;16.11;79.02;101569.91;4971994;28;20225;-73
2021/08/10 03:16:17;;;;;;;12.40;8.60;;;;;;;16.01;79.11;101561.66;4970994;28;20217;-73
2021/08/10 03:18:46;;;;;;;12.03;8.67;;;;;;;15.81;79.83;101554.00;4969042;28;20280;-72
2021/08/10 03:21:12;;;;;;;11.13;8.97;;;;;;;16.04;79.28;101556.59;4969670;28;20239;-73
2021/08/10 03:23:40;;;;;;;13.67;9.00;;;;;;;15.87;79.69;101553.03;4971504;28;20218;-73
2021/08/10 03:26:08;;;;;;;9.70;8.67;;;;;;;16.07;78.96;101555.28;4971075;28;20217;-73
2021/08/10 03:28:39;;;;;;;9.03;7.67;;;;;;;16.19;77.92;101553.38;4973031;28;20228;-73
2021/08/10 03:31:06;;;;;;;10.60;8.60;;;;;;;16.25;77.58;101543.47;4969354;28;20204;-72
2021/08/10 03:33:34;;;;;;;10.77;7.93;;;;;;;16.04;78.46;101545.81;4969834;28;20306;-72
2021/08/10 03:36:01;;;;;;;11.60;8.63;;;;;;;16.03;78.64;101548.75;4969479;28;20222;-72
2021/08/10 03:38:27;;;;;;;9.10;8.13;;;;;;;16.08;78.51;101548.84;4968660;28;20252;-73
2021/08/10 03:40:54;;;;;;;10.17;8.47;;;;;;;16.09;78.23;101550.47;4969383;28;20269;-73
2021/08/10 03:43:21;;;;;;;10.97;8.90;;;;;;;16.05;78.41;101549.34;4969422;28;20220;-72
2021/08/10 03:45:48;;;;;;;11.80;8.43;;;;;;;16.05;77.96;101555.53;4972815;28;20282;-72
2021/08/10 03:48:14;;;;;;;11.37;8.43;;;;;;;16.02;78.42;101557.91;4969075;28;20217;-73
2021/08/10 03:50:43;;;;;;;10.10;7.83;;;;;;;16.21;77.63;101566.59;4970259;28;20739;-72
2021/08/10 03:53:10;;;;;;;11.13;7.83;;;;;;;16.13;77.79;101560.56;4967223;28;20245;-73
2021/08/10 03:55:36;;;;;;;12.17;8.53;;;;;;;16.06;78.29;101565.25;4970607;28;20221;-73
2021/08/10 03:58:05;;;;;;;11.03;7.60;;;;;;;16.12;78.05;101572.38;4969205;28;20277;-73
2021/08/10 04:00:34;;;;;;;12.43;8.23;;;;;;;16.23;78.92;101567.97;4967609;28;20220;-74
2021/08/10 04:03:01;;;;;;;14.03;8.77;;;;;;;16.05;78.81;101565.50;4970499;28;20240;-72
2021/08/10 04:05:27;;;;;;;10.97;8.50;;;;;;;15.42;80.96;101569.88;4969336;28;20237;-72
2021/08/10 04:07:55;;;;;;;12.67;9.03;;;;;;;15.63;81.05;101583.81;4972084;28;20221;-72
2021/08/10 04:10:22;;;;;;;12.00;8.43;;;;;;;15.75;80.58;101577.34;4970374;28;20249;-72
2021/08/10 04:12:48;;;;;;;13.60;10.00;;;;;;;15.55;81.38;101585.78;4967861;28;20555;-72
2021/08/10 04:15:14;;;;;;;12.60;9.00;;;;;;;15.41;82.51;101584.41;4968521;28;20243;-72
2021/08/10 04:17:42;;;;;;;11.47;9.73;;;;;;;15.50;82.66;101580.31;4969779;28;20217;-73
2021/08/10 04:20:09;;;;;;;16.47;10.07;;;;;;;15.32;83.11;101596.59;4968281;28;20237;-72
2021/08/10 04:22:35;;;;;;;17.97;10.70;;;;;;;15.00;84.88;101601.53;4970124;28;20268;-72
2021/08/10 04:25:03;;;;;;;21.65;13.68;;;;;;;14.84;86.04;101594.94;4970112;28;20520;-76
2021/08/10 04:27:30;;;;;;;21.63;14.53;;;;;;;15.13;85.31;101576.25;4968154;28;20220;-76
2021/08/10 04:29:56;;;;;;;20.43;13.23;;;;;;;15.13;84.73;101585.16;4969259;28;20218;-75
2021/08/10 04:32:22;;;;;;;35.70;17.83;;;;;;;15.35;84.92;101579.97;4966166;28;20450;-76
2021/08/10 04:34:49;;;;;;;29.23;16.27;;;;;;;15.92;82.51;101565.81;4969301;28;20249;-77
2021/08/10 04:37:16;;;;;;;21.27;14.10;;;;;;;16.10;81.16;101584.47;4967978;28;20214;-77
2021/08/10 04:39:42;;;;;;;16.67;12.10;;;;;;;15.46;82.32;101591.78;4969490;28;20296;-76
2021/08/10 04:42:10;;;;;;;22.03;12.93;;;;;;;15.59;83.14;101583.44;4968312;28;20238;-75
2021/08/10 04:44:36;;;;;;;18.37;12.50;;;;;;;15.49;82.91;101588.59;4971087;28;20708;-76
2021/08/10 04:47:03;;;;;;;16.27;12.17;;;;;;;15.72;81.29;101590.47;4967740;28;20929;-76
2021/08/10 04:49:29;;;;;;;17.87;15.13;;;;;;;15.63;82.37;101583.81;4969777;28;20233;-78
2021/08/10 04:51:55;;;;;;;19.33;14.17;;;;;;;15.53;82.43;101592.47;4971859;28;20752;-79
2021/08/10 04:54:22;;;;;;;15.67;11.30;;;;;;;15.73;81.34;101582.13;4970865;28;20240;-79
2021/08/10 04:56:48;;;;;;;14.67;12.07;;;;;;;15.95;81.02;101568.81;4973479;28;20298;-79
2021/08/10 04:59:16;;;;;;;13.67;11.13;;;;;;;16.17;79.51;101571.66;4974092;28;20787;-79
2021/08/10 05:01:44;;;;;;;16.40;11.27;;;;;;;15.90;80.47;101574.13;4976674;28;20277;-79
2021/08/10 05:04:10;;;;;;;13.73;9.90;;;;;;;15.82;80.66;101571.81;4973733;28;20225;-79
2021/08/10 05:06:37;;;;;;;13.73;9.93;;;;;;;16.02;80.45;101574.91;4971561;28;20232;-79
2021/08/10 05:09:06;;;;;;;16.67;10.30;;;;;;;15.75;81.09;101573.81;4974116;28;20217;-79
2021/08/10 05:11:32;;;;;;;12.37;9.27;;;;;;;15.64;81.45;101582.78;4976118;28;20229;-79
2021/08/10 05:13:59;;;;;;;14.70;9.50;;;;;;;15.59;82.33;101578.03;4972888;28;20240;-79
2021/08/10 05:16:26;;;;;;;10.47;8.60;;;;;;;15.43;82.45;101573.41;4974663;28;20317;-79
2021/08/10 05:18:53;;;;;;;12.30;9.30;;;;;;;15.48;82.83;101592.34;4974447;28;20636;-79
2021/08/10 05:21:19;;;;;;;13.70;9.33;;;;;;;15.62;82.71;101590.25;4974118;28;20247;-79
2021/08/10 05:23:46;;;;;;;13.80;8.93;;;;;;;15.77;81.84;101593.28;4974944;28;20547;-79
2021/08/10 05:26:13;;;;;;;14.30;9.20;;;;;;;15.90;81.29;101590.31;4976704;28;20240;-79
2021/08/10 05:28:39;;;;;;;13.53;9.90;;;;;;;15.87;81.20;101596.16;4976039;28;20217;-79
2021/08/10 05:31:05;;;;;;;12.40;9.80;;;;;;;15.88;81.21;101600.50;4973779;28;20221;-79
2021/08/10 05:33:33;;;;;;;14.37;9.97;;;;;;;15.80;81.08;101596.31;4972403;28;20730;-79
2021/08/10 05:35:59;;;;;;;14.07;9.70;;;;;;;15.89;80.80;101600.25;4969408;28;20223;-78
2021/08/10 05:38:26;;;;;;;14.20;9.10;;;;;;;15.64;81.55;101601.63;4969769;28;20221;-78
2021/08/10 05:40:53;;;;;;;17.93;9.67;;;;;;;15.83;81.36;101597.69;4968866;28;20209;-78
2021/08/10 05:43:20;;;;;;;13.87;10.20;;;;;;;15.65;81.58;101603.25;4973989;28;20220;-77
2021/08/10 05:45:47;;;;;;;15.17;9.60;;;;;;;15.77;81.13;101609.44;4971348;28;20213;-78
2021/08/10 05:48:13;;;;;;;17.90;9.60;;;;;;;15.53;81.88;101608.63;4973772;28;20214;-78
2021/08/10 05:50:41;;;;;;;16.67;10.27;;;;;;;15.51;82.48;101614.25;4971327;28;20940;-78
2021/08/10 05:53:07;;;;;;;15.30;11.30;;;;;;;15.42;82.83;101621.06;4972028;28;20241;-78
2021/08/10 05:55:34;;;;;;;17.70;11.37;;;;;;;15.45;82.12;101623.28;4972152;28;20213;-78
2021/08/10 05:58:00;;;;;;;13.70;10.17;;;;;;;15.67;82.41;101614.59;4971669;28;20287;-78
2021/08/10 06:00:27;;;;;;;15.73;9.87;;;;;;;15.99;81.76;101614.97;4968832;28;20273;-78
2021/08/10 06:02:54;;;;;;;10.27;8.63;;;;;;;15.87;80.85;101623.09;4971319;28;20234;-78
2021/08/10 06:05:21;;;;;;;17.17;10.57;;;;;;;15.79;82.03;101615.41;4971560;28;20273;-77
2021/08/10 06:07:48;;;;;;;13.47;9.00;;;;;;;15.99;81.55;101623.06;4970458;28;20220;-77
2021/08/10 06:10:15;;;;;;;15.33;9.60;;;;;;;16.08;80.62;101619.75;4973593;28;20240;-77
2021/08/10 06:12:41;;;;;;;16.67;9.60;;;;;;;16.22;80.69;101620.28;4972360;28;20250;-77
2021/08/10 06:15:08;;;;;;;15.03;8.93;;;;;;;16.49;79.97;101615.91;4969404;28;20739;-77
2021/08/10 06:17:35;;;;;;;16.53;9.93;;;;;;;16.57;80.08;101611.19;4968956;28;20220;-77
2021/08/10 06:20:02;;;;;;;14.40;9.50;;;;;;;16.74;79.94;101612.06;4969216;28;20329;-77
2021/08/10 06:22:28;;;;;;;13.50;9.57;;;;;;;16.80;79.97;101619.19;4969815;28;20221;-77
2021/08/10 06:24:56;;;;;;;15.00;9.40;;;;;;;16.85;79.24;101611.16;4970167;28;20706;-77
2021/08/10 06:27:23;;;;;;;13.77;8.77;;;;;;;16.63;79.32;101618.31;4972723;28;20290;-77
2021/08/10 06:29:49;;;;;;;12.87;9.37;;;;;;;16.71;79.94;101615.25;4972646;28;20639;-78
2021/08/10 06:32:16;;;;;;;11.33;9.27;;;;;;;16.70;79.11;101621.72;4973234;28;20217;-78
2021/08/10 06:34:42;;;;;;;12.80;9.20;;;;;;;16.82;79.13;101625.16;4971079;28;20677;-78
2021/08/10 06:37:09;;;;;;;15.63;9.10;;;;;;;16.56;79.74;101615.78;4972289;28;20213;-78
2021/08/10 06:39:35;;;;;;;16.10;9.40;;;;;;;16.82;80.25;101618.94;4972289;28;20209;-78
2021/08/10 06:42:03;;;;;;;18.33;9.93;;;;;;;17.03;78.84;101615.50;4971770;28;20274;-77
2021/08/10 06:44:30;;;;;;;15.40;9.90;;;;;;;16.89;79.08;101620.38;4972082;28;20754;-77
2021/08/10 06:46:56;;;;;;;15.47;9.40;;;;;;;17.06;77.74;101615.00;4965955;28;20214;-77
2021/08/10 06:49:23;;;;;;;13.70;9.23;;;;;;;17.29;77.91;101625.63;4973151;28;20303;-77
2021/08/10 06:51:49;;;;;;;16.80;9.00;;;;;;;17.38;77.57;101614.38;4971476;28;20591;-77
2021/08/10 06:54:16;;;;;;;12.50;9.07;;;;;;;17.20;77.36;101619.00;4968423;28;20311;-78
2021/08/10 06:56:42;;;;;;;12.27;9.10;;;;;;;17.69;76.76;101618.34;4970830;28;20255;-77
2021/08/10 06:59:10;;;;;;;16.57;9.43;;;;;;;17.82;75.39;101616.06;4972476;28;20231;-77
2021/08/10 07:01:36;;;;;;;15.13;8.80;;;;;;;17.58;76.02;101628.16;4971421;28;20214;-78
2021/08/10 07:04:03;;;;;;;12.03;8.30;;;;;;;17.67;76.05;101629.38;4968094;28;20280;-77
2021/08/10 07:06:30;;;;;;;14.93;9.30;;;;;;;17.74;75.48;101627.31;4974600;28;20224;-78
2021/08/10 07:08:59;;;;;;;13.03;8.73;;;;;;;17.59;75.94;101632.50;4972755;28;20666;-78
2021/08/10 07:11:26;;;;;;;13.33;9.37;;;;;;;17.93;75.63;101638.63;4970787;28;20226;-77
2021/08/10 07:13:52;;;;;;;14.83;9.27;;;;;;;18.08;75.77;101633.41;4968779;28;20234;-78
2021/08/10 07:16:20;;;;;;;13.50;9.10;;;;;;;18.03;74.85;101636.03;4968691;28;20580;-78
2021/08/10 07:18:47;;;;;;;14.80;8.43;;;;;;;18.04;73.82;101637.69;4968665;28;20226;-78
2021/08/10 07:21:13;;;;;;;14.97;8.83;;;;;;;18.03;75.06;101638.72;4972253;28;20216;-78
2021/08/10 07:23:40;;;;;;;14.87;9.03;;;;;;;18.11;75.37;101640.19;4971247;28;20910;-78
2021/08/10 07:26:06;;;;;;;13.67;8.50;;;;;;;18.57;73.54;101644.19;4967539;28;20215;-78
2021/08/10 07:28:33;;;;;;;14.30;8.50;;;;;;;18.95;72.37;101637.78;4977019;28;20222;-79
2021/08/10 07:30:59;;;;;;;15.67;9.20;;;;;;;18.17;73.68;101647.31;4974502;28;20223;-78
2021/08/10 07:33:27;;;;;;;12.63;8.53;;;;;;;18.01;74.71;101640.88;4974483;28;20213;-78
2021/08/10 07:35:53;;;;;;;13.60;8.80;;;;;;;18.39;74.18;101645.34;4970468;28;20231;-78
2021/08/10 07:38:19;;;;;;;16.37;9.60;;;;;;;18.11;74.17;101654.53;4974235;28;20228;-79
2021/08/10 07:40:46;;;;;;;16.30;8.40;;;;;;;18.35;73.85;101648.84;4973643;28;20219;-79
2021/08/10 07:43:12;;;;;;;13.57;7.87;;;;;;;18.01;74.41;101653.59;4972006;28;21115;-79
2021/08/10 07:45:39;;;;;;;16.43;9.30;;;;;;;18.14;74.36;101655.91;4972928;28;20216;-79
2021/08/10 07:48:06;;;;;;;14.67;8.93;;;;;;;18.29;73.74;101655.25;4974379;28;20276;-78
2021/08/10 07:50:34;;;;;;;16.90;9.00;;;;;;;18.22;73.15;101653.56;4972766;28;20248;-78
2021/08/10 07:53:01;;;;;;;13.23;9.10;;;;;;;18.85;71.18;101653.13;4971504;28;20243;-79
2021/08/10 07:55:27;;;;;;;16.07;8.90;;;;;;;18.91;71.99;101646.66;4973517;28;20935;-79
2021/08/10 07:57:53;;;;;;;12.57;8.60;;;;;;;18.39;71.84;101653.47;4971457;28;20238;-79
2021/08/10 08:00:20;;;;;;;13.90;9.40;;;;;;;18.12;72.98;101661.56;4972827;28;20297;-79
2021/08/10 08:02:46;;;;;;;12.00;7.90;;;;;;;18.20;73.61;101660.31;4971581;28;20296;-79
2021/08/10 08:05:13;;;;;;;12.73;7.87;;;;;;;18.11;72.71;101659.13;4975359;28;20231;-78
2021/08/10 08:07:41;;;;;;;15.60;9.03;;;;;;;18.47;72.71;101654.91;4976018;28;20203;-79
2021/08/10 08:10:08;;;;;;;11.47;8.60;;;;;;;18.81;72.01;101656.34;4972532;28;20223;-79
2021/08/10 08:12:35;;;;;;;12.97;8.83;;;;;;;19.24;69.14;101649.09;4973966;28;20248;-79
2021/08/10 08:15:01;;;;;;;16.30;8.27;;;;;;;19.60;67.98;101650.16;4974404;28;20236;-78
2021/08/10 08:17:28;;;;;;;13.43;8.87;;;;;;;19.50;67.71;101641.09;4975844;28;20223;-79
2021/08/10 08:19:54;;;;;;;12.50;8.73;;;;;;;19.24;69.00;101642.84;4978662;28;20222;-79
2021/08/10 08:22:20;;;;;;;12.67;10.03;;;;;;;19.51;67.75;101646.25;4977386;28;20216;-79
2021/08/10 08:24:48;;;;;;;13.43;9.83;;;;;;;19.92;66.89;101649.19;4978275;28;20211;-78
2021/08/10 08:27:15;;;;;;;16.70;9.60;;;;;;;19.91;66.54;101642.94;4979946;28;20216;-79
2021/08/10 08:29:41;;;;;;;14.27;10.97;;;;;;;19.57;68.19;101652.56;4978493;28;20242;-78
2021/08/10 08:32:08;;;;;;;13.73;9.43;;;;;;;18.98;67.84;101653.50;4977090;28;20223;-79
2021/08/10 08:34:35;;;;;;;16.57;9.90;;;;;;;19.17;67.37;101651.19;4974378;28;20338;-79
2021/08/10 08:37:03;;;;;;;12.87;9.10;;;;;;;19.75;65.90;101643.97;4976958;28;20216;-78
2021/08/10 08:39:29;;;;;;;11.97;8.67;;;;;;;19.68;66.89;101649.63;4976854;28;20209;-78
2021/08/10 08:41:58;;;;;;;12.60;9.13;;;;;;;19.87;65.00;101643.75;4977964;28;20219;-79
2021/08/10 08:44:25;;;;;;;14.20;9.13;;;;;;;20.00;64.32;101643.25;4975108;28;20219;-78
2021/08/10 08:46:52;;;;;;;9.50;8.53;;;;;;;19.45;66.03;101644.63;4976023;28;20212;-78
2021/08/10 08:49:23;;;;;;;10.97;8.17;;;;;;;19.22;65.85;101651.25;4974112;28;20224;-78
2021/08/10 08:51:49;;;;;;;13.00;8.50;;;;;;;19.40;65.67;101647.28;4973745;28;20333;-79
2021/08/10 08:54:17;;;;;;;11.70;8.40;;;;;;;19.48;66.17;101649.50;4980151;28;20243;-78
2021/08/10 08:56:43;;;;;;;11.60;8.10;;;;;;;19.94;64.53;101655.16;4975094;28;20275;-78
2021/08/10 08:59:11;;;;;;;12.70;9.37;;;;;;;19.98;64.93;101650.84;4978358;28;20676;-79
2021/08/10 09:01:39;;;;;;;10.37;9.17;;;;;;;19.82;65.48;101655.41;4978866;28;20213;-79
2021/08/10 09:04:07;;;;;;;12.30;9.27;;;;;;;19.53;65.94;101646.00;4975645;28;20298;-79
2021/08/10 09:06:33;;;;;;;14.33;10.43;;;;;;;19.30;67.32;101655.34;4974253;28;20698;-78
2021/08/10 09:09:19;;;;;;;12.23;10.47;;;;;;;19.44;68.32;101645.69;4973787;28;20214;-79
2021/08/10 09:11:48;;;;;;;13.23;10.73;;;;;;;19.73;66.79;101653.47;4977309;28;20213;-78
2021/08/10 09:14:16;;;;;;;16.17;12.00;;;;;;;19.49;68.83;101651.13;4975941;28;20699;-79
2021/08/10 09:17:01;;;;;;;22.10;13.53;;;;;;;19.44;70.04;101648.41;4970289;28;20220;-78
2021/08/10 09:19:39;;;;;;;18.30;12.67;;;;;;;19.22;71.16;101659.38;4965727;28;20220;-78
2021/08/10 09:22:13;;;;;;;17.03;13.90;;;;;;;19.27;70.87;101655.88;4970171;28;20299;-78
2021/08/10 09:24:43;;;;;;;15.43;13.93;;;;;;;18.69;73.17;101652.19;4970003;28;20223;-79
2021/08/10 09:27:22;;;;;;;20.37;13.60;;;;;;;18.82;72.75;101657.16;4969598;28;20212;-79
2021/08/10 09:29:50;;;;;;;11.93;9.07;;;;;;;18.70;70.56;101660.03;4969835;28;20219;-79
2021/08/10 09:32:17;;;;;;;10.60;8.03;;;;;;;18.81;71.10;101650.13;4969980;28;20227;-79
2021/08/10 09:34:44;;;;;;;10.97;8.13;;;;;;;18.85;70.86;101656.66;4971124;28;21337;-79
2021/08/10 09:37:15;;;;;;;9.93;7.97;;;;;;;19.56;68.51;101654.44;4972117;28;20230;-78
2021/08/10 09:39:41;;;;;;;10.53;8.07;;;;;;;19.02;70.00;101657.31;4972092;28;20266;-79
2021/08/10 09:42:10;;;;;;;9.67;8.10;;;;;;;19.02;68.97;101651.09;4972316;28;20216;-78
2021/08/10 09:44:40;;;;;;;10.07;7.27;;;;;;;19.76;68.39;101655.63;4971741;28;20248;-79
2021/08/10 09:47:08;;;;;;;8.80;8.00;;;;;;;19.86;66.82;101655.69;4964949;28;20266;-79
2021/08/10 09:49:52;;;;;;;9.37;8.37;;;;;;;19.38;67.04;101660.28;4971693;28;20234;-79
2021/08/10 09:52:25;;;;;;;13.33;9.20;;;;;;;19.39;67.91;101656.50;4976544;28;20237;-79
2021/08/10 09:54:53;;;;;;;11.57;8.83;;;;;;;19.46;68.00;101656.28;4976473;28;20234;-79
2021/08/10 09:57:19;;;;;;;9.77;8.77;;;;;;;19.56;69.88;101664.47;4975205;28;20343;-79
2021/08/10 09:59:46;;;;;;;7.90;6.10;;;;;;;19.23;67.45;101666.41;4973165;28;20224;-79
2021/08/10 10:02:19;;;;;;;10.23;5.83;;;;;;;19.20;67.01;101666.13;4974035;28;20512;-79
2021/08/10 10:04:49;;;;;;;7.03;5.30;;;;;;;19.65;66.10;101657.47;4975681;28;20700;-79
2021/08/10 10:07:16;;;;;;;7.90;5.23;;;;;;;19.65;67.05;101661.00;4973788;28;20224;-79
2021/08/10 10:09:42;;;;;;;10.00;6.30;;;;;;;20.55;64.60;101661.59;4973383;28;20236;-79
2021/08/10 10:12:10;;;;;;;9.93;6.10;;;;;;;20.52;64.72;101653.19;4972220;28;20244;-79
2021/08/10 10:14:38;;;;;;;11.67;6.07;;;;;;;21.11;61.86;101652.66;4976090;28;20215;-79
2021/08/10 10:17:06;;;;;;;7.33;5.57;;;;;;;20.54;63.07;101668.13;4971845;28;20224;-79
2021/08/10 10:19:37;;;;;;;9.70;5.17;;;;;;;19.85;65.61;101667.63;4970660;28;20257;-79
2021/08/10 10:22:13;;;;;;;8.67;5.47;;;;;;;19.84;65.05;101663.28;4972336;28;20221;-79
2021/08/10 10:24:40;;;;;;;9.53;6.07;;;;;;;19.68;65.57;101662.38;4971743;28;20299;-78
2021/08/10 10:27:08;;;;;;;9.33;5.20;;;;;;;19.54;65.38;101659.28;4971005;28;20259;-79
2021/08/10 10:29:35;;;;;;;8.43;4.97;;;;;;;19.34;67.25;101672.72;4973464;28;20219;-79
2021/08/10 10:32:02;;;;;;;7.77;4.93;;;;;;;19.40;67.87;101655.41;4974094;28;20205;-79
2021/08/10 10:34:28;;;;;;;6.57;4.47;;;;;;;19.50;65.60;101660.91;4976260;28;20264;-79
2021/08/10 10:36:58;;;;;;;9.87;5.60;;;;;;;19.67;65.51;101652.59;4977451;28;20221;-79
2021/08/10 10:39:27;;;;;;;8.63;5.17;;;;;;;20.01;64.14;101650.31;4977294;28;20279;-79
2021/08/10 10:41:56;;;;;;;6.93;4.93;;;;;;;20.11;65.45;101653.06;4975530;28;20217;-80
2021/08/10 10:44:42;;;;;;;7.93;4.73;;;;;;;20.35;63.49;101658.84;4976723;28;20373;-79
2021/08/10 10:47:34;;;;;;;7.63;4.23;;;;;;;20.53;63.28;101649.38;4976274;28;20223;-79
2021/08/10 10:50:12;;;;;;;8.53;4.53;;;;;;;20.98;60.00;101640.44;4978537;28;20238;-79
2021/08/10 10:52:40;;;;;;;8.10;4.80;;;;;;;20.49;61.51;101646.41;4978952;28;20238;-78
2021/08/10 10:55:07;;;;;;;7.10;4.87;;;;;;;21.08;61.75;101655.91;4977336;28;20262;-78
2021/08/10 10:57:35;;;;;;;6.23;3.90;;;;;;;21.17;60.74;101659.72;4971216;28;20720;-79
2021/08/10 11:00:20;;;;;;;7.00;4.93;;;;;;;20.86;61.72;101656.22;4976212;28;20208;-79
2021/08/10 11:03:12;;;;;;;7.90;5.00;;;;;;;21.15;59.88;101640.16;4974600;28;20246;-79
2021/08/10 11:05:38;;;;;;;8.07;4.87;;;;;;;21.47;59.42;101648.00;4977080;28;20224;-79
2021/08/10 11:08:07;;;;;;;7.30;5.40;;;;;;;20.91;60.23;101648.03;4969994;28;20248;-78
2021/08/10 11:10:53;;;;;;;8.17;4.90;;;;;;;22.21;58.04;101640.91;4976356;28;20225;-79
2021/08/10 11:13:38;;;;;;;7.47;4.20;;;;;;;21.92;57.13;101640.75;4975534;28;20570;-79
2021/08/10 11:16:10;;;;;;;10.27;4.63;;;;;;;22.25;57.94;101634.63;4975218;28;20233;-79
2021/08/10 11:18:36;;;;;;;8.40;5.40;;;;;;;21.96;58.25;101642.63;4977276;28;20229;-79
2021/08/10 11:21:26;;;;;;;9.03;4.83;;;;;;;20.60;62.82;101647.22;4974286;28;20213;-79
2021/08/10 11:23:54;;;;;;;8.20;4.73;;;;;;;20.09;64.27;101652.53;4972067;28;20199;-78